Time;durP1;ratioP1;P1;durP2;ratioP2;P2;SDS_P1;SDS_P2;PMS_P1;PMS_P2;Temp;Humidity;BMP_temperature;BMP_pressure;BME280_temperature;BME280_humidity;BME280_pressure;Samples;Min_cycle;Max_cycle;Signal;HPM_P1;HPM_P2
2021/09/06 00:00:01;;;;;;;7.35;4.13;;;;;;;12.33;96.50;99513.28;5054407;28;20106;-80
2021/09/06 00:02:28;;;;;;;8.50;4.25;;;;;;;12.29;97.04;99516.59;5054270;28;20048;-80
2021/09/06 00:04:54;;;;;;;5.63;4.38;;;;;;;12.38;96.50;99510.00;5053899;28;20486;-80
2021/09/06 00:07:23;;;;;;;7.00;4.32;;;;;;;12.44;95.45;99509.25;5054205;28;20053;-80
2021/09/06 00:09:54;;;;;;;9.38;4.70;;;;;;;12.56;95.72;99520.53;5054002;28;20085;-80
2021/09/06 00:12:21;;;;;;;7.30;4.35;;;;;;;12.26;96.58;99497.88;5054358;28;20053;-80
2021/09/06 00:14:47;;;;;;;6.60;4.35;;;;;;;12.04;97.16;99497.75;5052989;28;20091;-80
2021/09/06 00:17:14;;;;;;;7.68;4.15;;;;;;;12.11;97.42;99503.31;5054092;28;20149;-80
2021/09/06 00:19:41;;;;;;;9.38;5.13;;;;;;;12.01;97.75;99484.50;5053901;28;20496;-80
2021/09/06 00:22:08;;;;;;;6.97;4.35;;;;;;;12.16;97.88;99504.47;5053943;28;20045;-80
2021/09/06 00:24:36;;;;;;;8.95;4.80;;;;;;;12.22;97.47;99505.56;5053542;28;20045;-80
2021/09/06 00:27:03;;;;;;;7.40;5.22;;;;;;;12.20;97.44;99502.19;5053908;28;20052;-80
2021/09/06 00:29:29;;;;;;;6.50;4.75;;;;;;;12.22;98.29;99500.13;5053699;28;20111;-80
2021/09/06 00:31:56;;;;;;;9.13;5.63;;;;;;;12.24;99.26;99498.06;5053396;28;20045;-80
2021/09/06 00:34:23;;;;;;;8.38;5.45;;;;;;;12.34;99.51;99506.78;5053337;28;20056;-80
2021/09/06 00:36:50;;;;;;;8.63;5.10;;;;;;;12.36;99.30;99502.00;5053318;28;20049;-80
2021/09/06 00:39:16;;;;;;;7.93;5.38;;;;;;;12.31;98.90;99485.34;5053686;28;20045;-80
2021/09/06 00:41:44;;;;;;;10.63;6.50;;;;;;;12.30;98.82;99489.13;5053228;28;20048;-80
2021/09/06 00:44:11;;;;;;;8.27;4.57;;;;;;;12.48;97.94;99488.75;5053244;28;20481;-80
2021/09/06 00:46:43;;;;;;;6.30;4.93;;;;;;;12.49;98.17;99498.59;5053196;28;20053;-80
2021/09/06 00:49:10;;;;;;;9.23;4.63;;;;;;;12.27;98.63;99492.25;5053380;28;20485;-80
2021/09/06 00:51:37;;;;;;;8.68;4.45;;;;;;;12.21;99.61;99471.19;5053427;28;20052;-80
2021/09/06 00:54:04;;;;;;;7.03;4.60;;;;;;;12.31;99.52;99504.44;5053599;28;20057;-80
2021/09/06 00:56:32;;;;;;;9.00;5.05;;;;;;;12.21;98.75;99490.28;5052875;28;20552;-80
2021/09/06 00:59:00;;;;;;;11.60;5.28;;;;;;;12.17;98.73;99489.78;5053353;28;20052;-80
2021/09/06 01:01:27;;;;;;;7.00;4.53;;;;;;;12.29;98.11;99505.69;5052792;28;20095;-80
2021/09/06 01:03:54;;;;;;;10.65;4.72;;;;;;;12.22;98.96;99500.13;5053100;28;20126;-80
2021/09/06 01:06:21;;;;;;;7.00;4.75;;;;;;;12.20;98.82;99503.03;5052793;28;20394;-80
2021/09/06 01:08:48;;;;;;;14.27;4.57;;;;;;;12.30;98.18;99510.94;5053158;28;20412;-79
2021/09/06 01:11:15;;;;;;;9.65;4.63;;;;;;;12.21;97.40;99495.72;5052926;28;20053;-80
2021/09/06 01:13:41;;;;;;;5.38;4.07;;;;;;;12.04;97.86;99505.94;5052971;28;20048;-80
2021/09/06 01:16:10;;;;;;;7.80;5.00;;;;;;;12.02;98.13;99497.94;5052348;28;20056;-80
2021/09/06 01:18:37;;;;;;;6.18;4.45;;;;;;;11.93;98.62;99509.13;5052458;28;20077;-80
2021/09/06 01:21:04;;;;;;;6.43;3.88;;;;;;;11.73;98.16;99490.53;5052803;28;20059;-79
2021/09/06 01:23:31;;;;;;;7.07;4.80;;;;;;;11.80;98.51;99509.72;5052995;28;20103;-80
2021/09/06 01:25:59;;;;;;;6.95;4.72;;;;;;;11.74;98.56;99496.84;5052352;28;20041;-80
2021/09/06 01:28:26;;;;;;;7.75;4.45;;;;;;;11.84;98.24;99511.88;5052380;28;20508;-80
2021/09/06 01:30:52;;;;;;;6.95;4.55;;;;;;;11.73;98.46;99514.19;5052497;28;20467;-79
2021/09/06 01:33:19;;;;;;;7.15;4.50;;;;;;;11.56;98.88;99506.19;5052580;28;20071;-80
2021/09/06 01:35:46;;;;;;;6.35;4.18;;;;;;;11.75;98.68;99520.31;5052022;28;20459;-79
2021/09/06 01:38:13;;;;;;;8.60;5.25;;;;;;;11.80;97.90;99526.91;5052656;28;20514;-79
2021/09/06 01:40:40;;;;;;;8.70;4.68;;;;;;;11.68;97.63;99526.50;5052405;28;20496;-79
2021/09/06 01:43:08;;;;;;;6.03;4.63;;;;;;;11.56;97.49;99530.69;5052231;28;20061;-79
2021/09/06 01:45:34;;;;;;;6.65;4.18;;;;;;;11.57;97.39;99534.25;5052058;28;20493;-79
2021/09/06 01:48:01;;;;;;;7.68;4.55;;;;;;;11.26;98.21;99513.38;5052648;28;20096;-80
2021/09/06 01:50:28;;;;;;;8.90;4.93;;;;;;;11.20;98.79;99519.53;5052018;28;20049;-79
2021/09/06 01:52:55;;;;;;;7.90;4.90;;;;;;;11.34;98.26;99521.50;5052453;28;20049;-79
2021/09/06 01:55:22;;;;;;;7.63;5.20;;;;;;;11.49;97.56;99533.28;5051990;28;20098;-79
2021/09/06 01:57:49;;;;;;;13.93;5.85;;;;;;;11.31;97.86;99513.69;5051946;28;20106;-79
2021/09/06 02:00:18;;;;;;;5.80;4.03;;;;;;;11.25;98.29;99517.16;5052260;28;20539;-79
2021/09/06 02:02:45;;;;;;;10.20;4.47;;;;;;;11.18;98.84;99517.00;5052461;28;20092;-79
2021/09/06 02:05:12;;;;;;;7.18;4.75;;;;;;;10.94;98.91;99515.28;5051918;28;20175;-80
2021/09/06 02:07:39;;;;;;;8.88;5.07;;;;;;;10.90;99.07;99531.13;5052250;28;20049;-80
2021/09/06 02:10:07;;;;;;;6.95;4.65;;;;;;;10.91;99.02;99519.19;5052523;28;20060;-80
2021/09/06 02:12:34;;;;;;;7.10;4.55;;;;;;;10.87;99.26;99522.44;5052288;28;20057;-79
2021/09/06 02:15:00;;;;;;;10.25;4.35;;;;;;;10.87;99.02;99536.91;5051571;28;20045;-80
2021/09/06 02:17:29;;;;;;;6.43;4.13;;;;;;;11.01;98.69;99535.31;5052238;28;20060;-79
2021/09/06 02:19:56;;;;;;;6.88;4.32;;;;;;;11.08;97.91;99528.13;5052084;28;20435;-80
2021/09/06 02:22:23;;;;;;;8.00;4.93;;;;;;;11.12;97.95;99534.88;5051935;28;20045;-80
2021/09/06 02:24:50;;;;;;;8.40;4.85;;;;;;;10.97;98.15;99526.66;5051680;28;20052;-79
2021/09/06 02:27:17;;;;;;;9.55;5.18;;;;;;;10.93;98.19;99514.44;5052020;28;20052;-79
2021/09/06 02:29:44;;;;;;;12.15;4.88;;;;;;;10.95;98.20;99536.03;5052007;28;20493;-80
2021/09/06 02:32:11;;;;;;;7.45;4.50;;;;;;;10.82;98.37;99531.16;5051683;28;20393;-80
2021/09/06 02:34:39;;;;;;;8.45;4.88;;;;;;;10.80;100.00;99544.94;5051152;28;20049;-79
2021/09/06 02:37:06;;;;;;;7.22;4.85;;;;;;;10.71;100.00;99531.56;5051791;28;20233;-79
2021/09/06 02:39:32;;;;;;;10.60;5.05;;;;;;;10.97;99.98;99537.56;5051842;28;20107;-79
2021/09/06 02:41:59;;;;;;;7.63;4.72;;;;;;;10.83;99.52;99541.00;5051204;28;20072;-79
2021/09/06 02:44:28;;;;;;;6.30;4.32;;;;;;;10.83;99.28;99541.00;5051705;28;20044;-79
2021/09/06 02:46:56;;;;;;;7.25;4.78;;;;;;;10.79;98.69;99539.66;5051749;28;20485;-79
2021/09/06 02:49:22;;;;;;;7.95;3.78;;;;;;;10.82;98.72;99535.75;5051843;28;20106;-79
2021/09/06 02:51:54;;;;;;;9.90;5.10;;;;;;;10.75;99.21;99541.91;5051964;28;20531;-79
2021/09/06 02:54:20;;;;;;;8.18;4.65;;;;;;;10.64;99.15;99542.28;5051531;28;20413;-79
2021/09/06 02:56:47;;;;;;;6.07;4.35;;;;;;;10.61;99.19;99539.91;5051648;28;20061;-79
2021/09/06 02:59:14;;;;;;;9.18;4.10;;;;;;;10.67;99.13;99546.53;5051880;28;20060;-79
2021/09/06 03:01:41;;;;;;;8.52;4.68;;;;;;;10.73;97.98;99541.22;5051273;28;20057;-79
2021/09/06 03:04:07;;;;;;;9.07;4.97;;;;;;;10.86;97.59;99551.53;5054813;28;20053;-79
2021/09/06 03:06:49;;;;;;;7.90;4.70;;;;;;;10.53;97.59;99521.75;5054970;28;20131;-79
2021/09/06 03:09:17;;;;;;;7.80;4.20;;;;;;;10.49;97.72;99547.59;5055027;28;20056;-79
2021/09/06 03:11:44;;;;;;;7.40;5.07;;;;;;;10.47;98.49;99536.06;5055085;28;20098;-79
2021/09/06 03:14:10;;;;;;;6.47;4.10;;;;;;;10.50;99.18;99554.72;5054863;28;20076;-79
2021/09/06 03:16:37;;;;;;;7.05;4.40;;;;;;;10.30;99.42;99537.97;5054884;28;20179;-79
2021/09/06 03:19:04;;;;;;;5.90;4.63;;;;;;;10.27;98.96;99532.88;5054849;28;20443;-80
2021/09/06 03:21:31;;;;;;;8.05;4.75;;;;;;;10.49;98.56;99554.91;5054997;28;20052;-80
2021/09/06 03:23:57;;;;;;;16.40;4.85;;;;;;;10.54;97.58;99541.66;5054718;28;20111;-80
2021/09/06 03:26:26;;;;;;;9.18;4.70;;;;;;;10.49;97.71;99539.44;5054807;28;20049;-79
2021/09/06 03:28:53;;;;;;;7.90;4.75;;;;;;;10.57;98.15;99544.88;5054640;28;20060;-79
2021/09/06 03:31:19;;;;;;;8.43;4.47;;;;;;;10.34;97.37;99520.31;5055077;28;20435;-79
2021/09/06 03:33:46;;;;;;;6.63;4.57;;;;;;;10.28;97.90;99546.28;5054569;28;20056;-79
2021/09/06 03:36:13;;;;;;;7.63;4.93;;;;;;;10.25;97.41;99524.91;5033976;28;20058;-79
2021/09/06 03:38:40;;;;;;;8.18;4.88;;;;;;;10.23;97.83;99536.94;5035143;28;20054;-79
2021/09/06 03:41:07;;;;;;;6.32;4.55;;;;;;;10.27;97.39;99541.84;5051005;28;20106;-79
2021/09/06 03:43:35;;;;;;;10.48;5.03;;;;;;;10.13;97.82;99531.69;5054521;28;20052;-79
2021/09/06 03:46:02;;;;;;;10.63;4.88;;;;;;;10.06;98.02;99528.84;5054132;28;20452;-79
2021/09/06 03:48:29;;;;;;;8.20;5.20;;;;;;;10.31;97.20;99541.50;5054879;28;20111;-79
2021/09/06 03:50:56;;;;;;;9.48;5.22;;;;;;;10.10;97.95;99532.03;5054176;28;20052;-79
2021/09/06 03:53:23;;;;;;;8.10;4.68;;;;;;;10.06;97.81;99531.53;5054328;28;20048;-79
2021/09/06 03:55:49;;;;;;;7.82;4.82;;;;;;;9.94;98.65;99532.09;5053980;28;20053;-79
2021/09/06 03:58:16;;;;;;;8.90;5.15;;;;;;;10.00;98.57;99521.38;5053931;28;20048;-79
2021/09/06 04:00:44;;;;;;;8.52;4.60;;;;;;;9.97;98.53;99537.19;5054328;28;20044;-80
2021/09/06 04:03:11;;;;;;;7.80;4.88;;;;;;;10.08;98.63;99536.81;5054062;28;20056;-79
2021/09/06 04:05:38;;;;;;;12.75;4.75;;;;;;;10.03;97.91;99523.75;5053882;28;20053;-79
2021/09/06 04:08:05;;;;;;;7.32;4.50;;;;;;;10.00;97.85;99525.97;5053666;28;20554;-79
2021/09/06 04:10:32;;;;;;;10.43;4.85;;;;;;;10.08;98.17;99539.53;5053941;28;20102;-79
2021/09/06 04:12:59;;;;;;;6.43;4.80;;;;;;;9.78;98.32;99527.50;5053787;28;20044;-79
2021/09/06 04:15:26;;;;;;;7.85;4.55;;;;;;;9.61;99.06;99529.41;5053421;28;20459;-79
2021/09/06 04:17:54;;;;;;;7.32;4.45;;;;;;;9.57;99.43;99529.75;5053990;28;20053;-79
2021/09/06 04:20:21;;;;;;;5.85;3.95;;;;;;;9.62;99.32;99533.78;5053319;28;20048;-79
2021/09/06 04:22:48;;;;;;;7.70;4.55;;;;;;;9.79;99.46;99548.22;5053804;28;20060;-80
2021/09/06 04:25:15;;;;;;;6.78;4.53;;;;;;;9.87;99.33;99549.03;5053425;28;20148;-79
2021/09/06 04:27:42;;;;;;;10.95;5.15;;;;;;;9.90;98.83;99545.97;5054015;28;20110;-79
2021/09/06 04:30:10;;;;;;;7.38;4.97;;;;;;;9.92;98.32;99548.53;5053417;28;20053;-79
2021/09/06 04:32:36;;;;;;;7.68;4.15;;;;;;;9.83;97.92;99553.16;5053712;28;20049;-79
2021/09/06 04:35:05;;;;;;;7.03;4.75;;;;;;;9.85;98.01;99551.09;5052745;28;20102;-80
2021/09/06 04:37:32;;;;;;;7.75;4.15;;;;;;;9.77;97.50;99547.53;5053108;28;20045;-79
2021/09/06 04:39:59;;;;;;;6.28;4.30;;;;;;;9.75;97.62;99550.41;5053854;28;20045;-79
2021/09/06 04:42:26;;;;;;;6.15;4.13;;;;;;;9.95;96.55;99560.94;5053090;28;20110;-79
2021/09/06 04:44:52;;;;;;;11.60;4.65;;;;;;;9.62;97.58;99545.50;5053051;28;20052;-79
2021/09/06 04:47:20;;;;;;;5.68;4.10;;;;;;;9.57;98.06;99578.59;5053699;28;20463;-79
2021/09/06 04:49:46;;;;;;;7.93;5.07;;;;;;;9.77;97.49;99575.56;5054617;28;20049;-79
2021/09/06 04:52:15;;;;;;;7.97;4.60;;;;;;;9.59;97.85;99561.28;5054484;28;20098;-79
2021/09/06 04:54:41;;;;;;;10.43;4.68;;;;;;;9.57;97.97;99556.88;5053660;28;20048;-80
2021/09/06 04:57:08;;;;;;;6.82;4.57;;;;;;;9.80;97.93;99591.50;5053067;28;20040;-80
2021/09/06 04:59:35;;;;;;;7.88;4.97;;;;;;;9.68;98.13;99587.41;5052831;28;20400;-80
2021/09/06 05:02:01;;;;;;;10.20;4.63;;;;;;;9.78;97.64;99593.53;5053200;28;20052;-79
2021/09/06 05:04:28;;;;;;;6.90;4.40;;;;;;;9.71;97.81;99585.22;5052664;28;20052;-79
2021/09/06 05:06:55;;;;;;;7.13;4.70;;;;;;;9.64;98.48;99588.78;5053036;28;20057;-80
2021/09/06 05:09:23;;;;;;;7.50;5.15;;;;;;;9.61;98.39;99578.25;5052774;28;20131;-79
2021/09/06 05:11:51;;;;;;;9.60;5.70;;;;;;;9.85;97.82;99601.84;5052768;28;20121;-79
2021/09/06 05:14:18;;;;;;;7.80;4.82;;;;;;;9.77;98.05;99602.72;5052963;28;20084;-79
2021/09/06 05:16:45;;;;;;;9.30;5.25;;;;;;;9.65;98.41;99591.31;5052657;28;20045;-79
2021/09/06 05:19:11;;;;;;;7.00;4.70;;;;;;;9.75;98.45;99610.16;5052967;28;20538;-78
2021/09/06 05:21:38;;;;;;;6.60;4.82;;;;;;;9.82;98.29;99604.91;5052148;28;20056;-79
2021/09/06 05:24:06;;;;;;;11.68;5.20;;;;;;;9.92;98.17;99606.44;5052180;28;20147;-80
2021/09/06 05:26:34;;;;;;;14.95;5.25;;;;;;;9.98;97.86;99623.06;5051688;28;20049;-79
2021/09/06 05:29:01;;;;;;;7.90;5.10;;;;;;;9.83;98.69;99603.88;5052545;28;20045;-78
2021/09/06 05:31:28;;;;;;;8.38;5.57;;;;;;;9.86;98.94;99609.81;5052576;28;20045;-79
2021/09/06 05:33:55;;;;;;;9.05;5.43;;;;;;;9.90;99.42;99615.75;5052260;28;20408;-78
2021/09/06 05:36:21;;;;;;;9.48;5.38;;;;;;;10.02;99.10;99622.53;5051717;28;20456;-78
2021/09/06 05:38:48;;;;;;;8.00;5.30;;;;;;;9.98;99.20;99615.78;5052259;28;20049;-79
2021/09/06 05:41:19;;;;;;;8.05;5.40;;;;;;;9.98;99.60;99606.75;5052622;28;20080;-79
2021/09/06 05:43:47;;;;;;;7.47;5.05;;;;;;;10.04;99.91;99619.66;5052292;28;20056;-79
2021/09/06 05:46:15;;;;;;;10.70;5.32;;;;;;;10.14;100.00;99614.06;5052094;28;20049;-79
2021/09/06 05:48:42;;;;;;;13.32;6.18;;;;;;;10.28;100.00;99629.66;5052522;28;20115;-79
2021/09/06 05:51:09;;;;;;;9.63;5.50;;;;;;;10.31;100.00;99621.16;5051884;28;20102;-79
2021/09/06 05:53:36;;;;;;;8.05;5.57;;;;;;;10.30;100.00;99626.75;5052551;28;20056;-79
2021/09/06 05:56:03;;;;;;;11.98;5.82;;;;;;;10.33;100.00;99629.13;5051673;28;20098;-79
2021/09/06 05:58:29;;;;;;;8.80;5.20;;;;;;;10.59;100.00;99613.50;5052123;28;20049;-79
2021/09/06 06:00:58;;;;;;;7.90;5.38;;;;;;;10.92;99.24;99613.38;5052089;28;20190;-79
2021/09/06 06:03:25;;;;;;;8.27;5.72;;;;;;;11.20;98.17;99625.66;5051915;28;20397;-79
2021/09/06 06:05:51;;;;;;;7.93;5.70;;;;;;;11.45;97.37;99635.41;5051860;28;20053;-80
2021/09/06 06:08:18;;;;;;;10.48;6.10;;;;;;;11.43;97.09;99625.75;5051898;28;20049;-80
2021/09/06 06:10:46;;;;;;;7.95;5.55;;;;;;;11.52;96.67;99630.09;5052228;28;20057;-79
2021/09/06 06:13:13;;;;;;;11.68;5.45;;;;;;;11.51;96.80;99636.56;5051520;28;20049;-79
2021/09/06 06:15:40;;;;;;;8.23;5.47;;;;;;;11.51;97.02;99644.72;5051970;28;20057;-79
2021/09/06 06:18:08;;;;;;;7.40;5.05;;;;;;;11.56;96.88;99641.47;5051754;28;20068;-79
2021/09/06 06:20:35;;;;;;;12.70;5.00;;;;;;;11.78;96.21;99653.41;5052235;28;20056;-79
2021/09/06 06:23:02;;;;;;;13.48;6.18;;;;;;;12.08;94.58;99631.78;5052138;28;20095;-79
2021/09/06 06:25:28;;;;;;;10.88;5.70;;;;;;;12.64;92.87;99648.59;5051729;28;20099;-79
2021/09/06 06:27:55;;;;;;;13.73;5.90;;;;;;;13.13;90.24;99633.56;5052026;28;20052;-79
2021/09/06 06:30:23;;;;;;;11.23;6.03;;;;;;;13.80;87.40;99629.75;5051554;28;20044;-80
2021/09/06 06:32:50;;;;;;;10.80;6.28;;;;;;;14.40;85.27;99636.81;5051807;28;20455;-80
2021/09/06 06:35:18;;;;;;;8.68;5.57;;;;;;;14.49;83.66;99621.94;5051063;28;20135;-79
2021/09/06 06:37:45;;;;;;;27.15;6.65;;;;;;;14.67;84.40;99630.50;5054577;28;20098;-79
2021/09/06 06:40:13;;;;;;;10.85;6.05;;;;;;;14.83;82.54;99623.88;5055668;28;20056;-79
2021/09/06 06:42:40;;;;;;;13.65;6.13;;;;;;;15.06;81.29;99635.59;5055620;28;20049;-79
2021/09/06 06:45:11;;;;;;;11.80;5.93;;;;;;;15.14;81.21;99654.56;5054788;28;20045;-79
2021/09/06 06:47:38;;;;;;;11.98;6.10;;;;;;;15.22;81.08;99629.78;5055806;28;20041;-79
2021/09/06 06:50:05;;;;;;;13.52;6.25;;;;;;;15.49;80.57;99655.38;5055533;28;20488;-79
2021/09/06 06:52:35;;;;;;;17.23;6.63;;;;;;;15.45;80.99;99656.00;5055321;28;20317;-79
2021/09/06 06:55:01;;;;;;;24.65;6.75;;;;;;;15.57;80.24;99626.94;5055529;28;20052;-80
2021/09/06 06:57:28;;;;;;;12.27;6.60;;;;;;;15.84;80.90;99638.00;5054919;28;20087;-80
2021/09/06 06:59:55;;;;;;;12.80;6.00;;;;;;;15.89;80.45;99639.06;5054873;28;20099;-79
2021/09/06 07:02:22;;;;;;;15.13;5.85;;;;;;;15.70;81.01;99623.38;5055009;28;20045;-79
2021/09/06 07:04:54;;;;;;;11.63;6.18;;;;;;;15.82;82.30;99643.69;5055265;28;20049;-79
2021/09/06 07:07:20;;;;;;;14.60;6.05;;;;;;;16.05;81.85;99643.31;5055176;28;20306;-79
2021/09/06 07:09:49;;;;;;;13.20;5.47;;;;;;;16.40;80.75;99647.75;5055198;28;20053;-79
2021/09/06 07:12:15;;;;;;;12.68;5.40;;;;;;;16.31;80.65;99627.09;5055023;28;20063;-79
2021/09/06 07:14:42;;;;;;;12.27;5.90;;;;;;;16.56;81.07;99646.47;5054724;28;20049;-80
2021/09/06 07:17:09;;;;;;;18.23;6.18;;;;;;;16.66;81.30;99651.53;5054857;28;20056;-80
2021/09/06 07:19:36;;;;;;;13.27;6.53;;;;;;;16.31;82.56;99644.38;5054736;28;20064;-80
2021/09/06 07:22:03;;;;;;;14.05;5.80;;;;;;;16.46;80.85;99660.63;5055040;28;20106;-79
2021/09/06 07:24:30;;;;;;;8.45;6.07;;;;;;;16.68;80.93;99653.03;5054230;28;20048;-79
2021/09/06 07:26:58;;;;;;;12.95;6.25;;;;;;;16.81;80.11;99658.47;5054981;28;20079;-79
2021/09/06 07:29:31;;;;;;;14.65;5.95;;;;;;;16.81;79.62;99650.25;5054764;28;20094;-79
2021/09/06 07:32:00;;;;;;;14.77;6.63;;;;;;;16.95;79.91;99655.75;5054515;28;20498;-80
2021/09/06 07:34:26;;;;;;;12.52;5.97;;;;;;;16.77;80.40;99634.41;5054526;28;20053;-80
2021/09/06 07:36:53;;;;;;;8.25;5.47;;;;;;;17.08;78.44;99655.72;5054075;28;20547;-80
2021/09/06 07:39:20;;;;;;;13.57;5.88;;;;;;;17.21;78.90;99654.84;5054931;28;20053;-80
2021/09/06 07:41:47;;;;;;;14.52;6.55;;;;;;;17.31;81.00;99649.75;5054124;28;20056;-79
2021/09/06 07:44:15;;;;;;;16.25;6.25;;;;;;;17.33;80.76;99641.28;5054582;28;20052;-80
2021/09/06 07:46:42;;;;;;;13.68;5.72;;;;;;;17.39;79.38;99647.78;5054261;28;20056;-81
2021/09/06 07:49:08;;;;;;;15.45;7.22;;;;;;;17.44;79.12;99657.06;5053681;28;20404;-81
2021/09/06 07:51:35;;;;;;;14.68;6.38;;;;;;;17.59;79.84;99651.28;5054290;28;20076;-80
2021/09/06 07:54:02;;;;;;;11.98;5.63;;;;;;;17.80;78.05;99666.63;5054529;28;20467;-79
2021/09/06 07:56:29;;;;;;;9.50;6.45;;;;;;;17.75;77.60;99671.94;5054078;28;20492;-79
2021/09/06 07:58:55;;;;;;;12.80;5.82;;;;;;;17.90;78.97;99666.19;5054032;28;20060;-79
2021/09/06 08:01:24;;;;;;;16.00;5.97;;;;;;;17.80;76.38;99654.78;5054254;28;20056;-80
2021/09/06 08:03:51;;;;;;;13.77;7.05;;;;;;;17.96;76.82;99673.56;5054152;28;20473;-80
2021/09/06 08:06:17;;;;;;;18.08;6.60;;;;;;;18.03;76.28;99673.50;5053744;28;20489;-79
2021/09/06 08:08:44;;;;;;;23.00;6.03;;;;;;;18.16;75.60;99673.41;5054061;28;20053;-79
2021/09/06 08:11:11;;;;;;;16.23;6.68;;;;;;;18.30;75.01;99662.31;5054198;28;20060;-80
2021/09/06 08:13:38;;;;;;;33.97;7.30;;;;;;;18.42;75.75;99673.44;5054174;28;20095;-81
2021/09/06 08:16:05;;;;;;;18.35;6.40;;;;;;;18.54;74.92;99672.47;5053114;28;20053;-80
2021/09/06 08:18:33;;;;;;;10.85;5.88;;;;;;;18.57;73.98;99671.19;5053822;28;20052;-80
2021/09/06 08:21:00;;;;;;;12.18;5.43;;;;;;;18.64;74.62;99677.50;5053264;28;20045;-80
2021/09/06 08:23:27;;;;;;;8.77;5.30;;;;;;;18.65;74.27;99687.47;5053817;28;20048;-81
2021/09/06 08:25:54;;;;;;;9.50;5.10;;;;;;;18.63;74.16;99678.56;5053172;28;20041;-81
2021/09/06 08:28:20;;;;;;;14.75;5.47;;;;;;;18.70;73.15;99675.75;5053724;28;20049;-81
2021/09/06 08:30:47;;;;;;;13.15;5.85;;;;;;;18.80;73.80;99675.22;5053620;28;20049;-81
2021/09/06 08:33:14;;;;;;;13.07;5.63;;;;;;;18.91;73.75;99686.38;5053353;28;20130;-81
2021/09/06 08:35:42;;;;;;;24.80;6.35;;;;;;;19.13;73.01;99693.38;5052862;28;20064;-81
2021/09/06 08:38:09;;;;;;;16.30;5.47;;;;;;;19.11;71.36;99699.13;5052780;28;20516;-81
2021/09/06 08:40:36;;;;;;;14.35;5.88;;;;;;;19.06;71.11;99698.97;5053100;28;20118;-81
2021/09/06 08:43:07;;;;;;;36.83;6.45;;;;;;;19.14;71.73;99695.91;5053256;28;20076;-80
2021/09/06 08:45:35;;;;;;;9.20;5.13;;;;;;;19.29;71.35;99706.56;5052570;28;20049;-80
2021/09/06 08:48:02;;;;;;;11.32;5.60;;;;;;;19.51;73.02;99706.94;5053399;28;20118;-80
2021/09/06 08:50:29;;;;;;;7.47;4.78;;;;;;;19.49;71.13;99699.97;5053266;28;20045;-80
2021/09/06 08:52:57;;;;;;;11.13;4.97;;;;;;;19.45;69.78;99694.06;5053337;28;20056;-81
2021/09/06 08:55:24;;;;;;;13.20;5.30;;;;;;;19.59;70.38;99700.28;5052597;28;20060;-81
2021/09/06 08:57:51;;;;;;;11.55;5.25;;;;;;;19.53;69.70;99699.28;5053499;28;20053;-80
2021/09/06 09:00:26;;;;;;;17.55;5.78;;;;;;;19.56;69.88;99698.81;5052149;28;20106;-81
2021/09/06 09:02:52;;;;;;;8.45;5.03;;;;;;;19.69;70.37;99708.84;5052896;28;20048;-81
2021/09/06 09:05:19;;;;;;;12.25;5.88;;;;;;;19.68;68.13;99711.84;5052857;28;20056;-80
2021/09/06 09:07:46;;;;;;;17.58;5.28;;;;;;;19.96;68.83;99705.75;5052598;28;20455;-80
2021/09/06 09:10:27;;;;;;;10.70;5.80;;;;;;;20.10;69.86;99704.50;5052765;28;20481;-80
2021/09/06 09:13:04;;;;;;;11.38;4.85;;;;;;;20.34;68.65;99707.34;5052857;28;20056;-80
2021/09/06 09:15:31;;;;;;;6.05;4.40;;;;;;;20.43;67.35;99705.94;5052738;28;20045;-80
2021/09/06 09:18:00;;;;;;;8.00;5.38;;;;;;;20.49;69.46;99709.66;5052179;28;20542;-80
2021/09/06 09:20:38;;;;;;;10.90;5.18;;;;;;;20.59;67.81;99714.59;5052778;28;20489;-80
2021/09/06 09:23:06;;;;;;;9.43;6.05;;;;;;;20.64;65.65;99703.66;5053741;28;20098;-80
2021/09/06 09:25:34;;;;;;;12.15;5.22;;;;;;;20.66;66.22;99709.84;5053489;28;20060;-80
2021/09/06 09:28:02;;;;;;;11.73;5.38;;;;;;;20.77;64.81;99705.41;5053994;28;20049;-80
2021/09/06 09:30:32;;;;;;;9.98;6.03;;;;;;;20.80;64.08;99708.53;5052823;28;20110;-80
2021/09/06 09:33:10;;;;;;;;;;;;;;;20.92;66.60;99710.47;5052984;28;20052;-80
2021/09/06 09:35:38;;;;;;;8.95;4.60;;;;;;;21.00;67.18;99697.13;5051480;28;19920;-80
2021/09/06 09:38:06;;;;;;;11.52;4.75;;;;;;;21.07;63.48;99699.75;5052656;28;20045;-82
2021/09/06 09:40:35;;;;;;;12.05;4.80;;;;;;;21.21;64.49;99697.59;5052330;28;20103;-80
2021/09/06 09:43:02;;;;;;;8.82;5.03;;;;;;;21.25;63.96;99697.97;5084782;28;20513;-81
2021/09/06 09:45:30;;;;;;;17.85;5.05;;;;;;;21.30;65.00;99687.00;5052328;28;20044;-80
2021/09/06 09:47:59;;;;;;;12.02;5.63;;;;;;;21.37;62.37;99690.47;5052117;28;20110;-80
2021/09/06 09:50:27;;;;;;;10.25;5.85;;;;;;;21.55;61.38;99695.88;5052309;28;20048;-80
2021/09/06 09:52:55;;;;;;;10.45;5.93;;;;;;;21.62;57.30;99687.44;5051914;28;20049;-82
2021/09/06 09:55:23;;;;;;;13.45;5.05;;;;;;;21.73;56.60;99697.63;5051943;28;20049;-81
2021/09/06 09:57:52;;;;;;;9.38;5.13;;;;;;;21.87;56.54;99681.56;5051942;28;20114;-81
2021/09/06 10:00:19;;;;;;;13.95;5.28;;;;;;;21.88;55.41;99677.72;5052400;28;20053;-80
2021/09/06 10:02:51;;;;;;;10.95;4.88;;;;;;;22.07;55.97;99683.91;5051919;28;20045;-80
2021/09/06 10:05:19;;;;;;;8.93;4.60;;;;;;;22.30;56.42;99693.19;5052177;28;20451;-81
2021/09/06 10:07:47;;;;;;;7.82;4.70;;;;;;;22.39;54.90;99680.63;5052107;28;20053;-81
2021/09/06 10:10:18;;;;;;;8.23;5.65;;;;;;;22.39;54.47;99691.72;5051895;28;20056;-81
2021/09/06 10:12:46;;;;;;;9.25;4.65;;;;;;;22.38;50.73;99686.41;5054984;28;20064;-81
2021/09/06 10:15:16;;;;;;;6.93;4.63;;;;;;;22.50;56.29;99683.59;5055813;28;20048;-81
2021/09/06 10:17:47;;;;;;;8.68;5.15;;;;;;;22.65;55.17;99685.78;5056343;28;20049;-81
2021/09/06 10:20:21;;;;;;;6.35;4.88;;;;;;;22.68;52.74;99672.25;5055980;28;20136;-81
2021/09/06 10:22:49;;;;;;;10.13;4.53;;;;;;;22.79;51.14;99667.69;5056243;28;20049;-80
2021/09/06 10:25:18;;;;;;;7.13;4.40;;;;;;;22.84;51.79;99667.78;5055464;28;20041;-81
2021/09/06 10:27:53;;;;;;;7.25;4.28;;;;;;;22.95;49.93;99669.59;5056002;28;20540;-81
2021/09/06 10:30:32;;;;;;;10.40;5.07;;;;;;;22.92;50.63;99664.56;5055922;28;20412;-81
2021/09/06 10:32:59;;;;;;;10.40;4.87;;;;;;;22.93;47.44;99657.94;5055894;28;20381;-81
2021/09/06 10:35:27;;;;;;;6.53;4.85;;;;;;;23.09;50.64;99658.16;5054628;28;20041;-81
2021/09/06 10:38:02;;;;;;;9.15;5.30;;;;;;;23.22;47.56;99660.59;5055924;28;20041;-80
2021/09/06 10:40:31;;;;;;;8.07;5.28;;;;;;;23.26;47.04;99647.03;5055695;28;20048;-80
2021/09/06 10:42:58;;;;;;;6.00;4.20;;;;;;;23.33;49.77;99642.16;5055544;28;20049;-81
2021/09/06 10:45:27;;;;;;;6.47;4.40;;;;;;;23.43;47.02;99649.78;5055507;28;20401;-81
2021/09/06 10:47:59;;;;;;;7.07;4.72;;;;;;;23.57;50.35;99637.19;5055458;28;20425;-81
2021/09/06 10:50:26;;;;;;;8.77;4.70;;;;;;;23.67;47.74;99644.81;5055621;28;20048;-81
2021/09/06 10:52:53;;;;;;;5.97;4.55;;;;;;;23.77;51.11;99642.16;5055712;28;20106;-81
2021/09/06 10:55:20;;;;;;;7.70;4.72;;;;;;;23.80;47.24;99643.53;5055508;28;20431;-81
2021/09/06 10:57:48;;;;;;;6.72;4.35;;;;;;;23.76;49.35;99636.84;5035380;28;20463;-81
2021/09/06 11:00:18;;;;;;;11.18;4.68;;;;;;;23.95;48.48;99642.91;5039109;28;20048;-81
2021/09/06 11:02:48;;;;;;;7.60;4.93;;;;;;;23.92;47.69;99627.63;5055649;28;20132;-81
2021/09/06 11:05:19;;;;;;;9.68;4.35;;;;;;;24.14;47.48;99635.03;5055309;28;20049;-81
2021/09/06 11:07:46;;;;;;;7.88;4.95;;;;;;;24.24;48.49;99626.81;5055114;28;20053;-81
2021/09/06 11:10:15;;;;;;;8.77;5.00;;;;;;;24.33;46.46;99638.28;5055509;28;20052;-81
2021/09/06 11:12:53;;;;;;;12.48;4.90;;;;;;;24.36;45.95;99627.47;5055040;28;20045;-81
2021/09/06 11:15:23;;;;;;;6.22;4.30;;;;;;;24.43;48.56;99632.78;5055166;28;20059;-82
2021/09/06 11:17:57;;;;;;;7.40;4.63;;;;;;;24.46;47.42;99629.47;5055159;28;20037;-81
2021/09/06 11:20:25;;;;;;;6.65;4.82;;;;;;;24.62;43.98;99629.66;5054828;28;20507;-81
2021/09/06 11:22:52;;;;;;;8.20;4.88;;;;;;;24.71;45.38;99631.66;5054353;28;20080;-81
2021/09/06 11:25:24;;;;;;;6.65;4.50;;;;;;;24.60;44.70;99623.50;5054294;28;20057;-81
2021/09/06 11:27:52;;;;;;;7.40;4.72;;;;;;;24.71;45.53;99633.59;5055108;28;20049;-81
2021/09/06 11:30:22;;;;;;;7.22;4.82;;;;;;;24.76;43.15;99622.50;5054607;28;20488;-81
2021/09/06 11:32:50;;;;;;;6.70;4.82;;;;;;;24.80;43.29;99637.56;5054815;28;20053;-81